Enter the Airport ICAO Code

Search by Airport or City

Current Weather

MROC | Juan Santamaría International Airport

San José, Costa Rica

Last Update 22 Minutes Ago

Clear Sky

Temperature of 24 ºC

Moderate Winds from SouthEast

Temperature

24 ºC

Dew Point Temperature

16 ºC

Relative Humidity

61.11 %

Wind Direction

SouthEast (120º, Ranging from 090º to 160º)

Wind Velocity

19 km/h (10 kt)

Gusts

None

Visibility

No Significant Reductions

Sea Level Pressure

29.98 inHg (Inches of Mercury)

Layers of Clouds

None

METAR MROC 211300Z 12010KT 090V160 CAVOK 24/16 A2998 NOSIG

Weather Forecast

MROC | Juan Santamaría International Airport

San José, Costa Rica

Forecast valid for the next 23 Hours

From now on it is expected:

Mostly Cloudy Sky

Light to Moderate Winds from East

In 4 to 6 hours it is expected the begining of:

Light to Moderate Winds from West

In 7 hours it is expected the begining of 3 hours with intermittent periods of:

Thunderstorm with Rain

In 11 hours it is expected the begining of 6 hours with intermittent periods of:

Fog Banks

Light Winds from Variable Directions

In 18 to 20 hours it is expected the begining of:

Light to Moderate Winds from East

Maximum Temperature

29 ºC in 5 Hours

Minimum Temperature

19 ºC in 22 Hours

TAF MROC 211104Z 2112/2212 10006KT 9999 SCT020 BKN200 TX29/2118Z TN19/2211Z BECMG 2117/2119 26006KT TEMPO 2120/2123 5000 TSRA SCT015CB TEMPO 2200/2206 VRB02KT BCFG BKN020 BECMG 2207/2209 09007KT